sensor_id;sensor_type;location;lat;lon;timestamp;pressure;altitude;pressure_sealevel;temperature;humidity
62789;BME280;66401;42.016;21.454;2023-04-03T00:01:20;97589.50;;;10.12;55.81
62789;BME280;66401;42.016;21.454;2023-04-03T00:03:46;97595.34;;;10.58;54.88
62789;BME280;66401;42.016;21.454;2023-04-03T00:06:12;97581.75;;;10.56;54.84
62789;BME280;66401;42.016;21.454;2023-04-03T00:08:38;97583.91;;;10.15;57.02
62789;BME280;66401;42.016;21.454;2023-04-03T00:11:04;97573.59;;;10.40;56.20
62789;BME280;66401;42.016;21.454;2023-04-03T00:13:32;97584.03;;;10.78;55.63
62789;BME280;66401;42.016;21.454;2023-04-03T00:15:58;97586.31;;;10.99;54.11
62789;BME280;66401;42.016;21.454;2023-04-03T00:18:24;97576.97;;;11.16;53.46
62789;BME280;66401;42.016;21.454;2023-04-03T00:20:50;97569.06;;;11.30;53.11
62789;BME280;66401;42.016;21.454;2023-04-03T00:23:15;97574.41;;;11.35;52.27
62789;BME280;66401;42.016;21.454;2023-04-03T00:25:41;97575.47;;;11.52;52.21
62789;BME280;66401;42.016;21.454;2023-04-03T00:28:07;97582.72;;;11.50;52.28
62789;BME280;66401;42.016;21.454;2023-04-03T00:30:33;97578.84;;;11.59;51.58
62789;BME280;66401;42.016;21.454;2023-04-03T00:32:59;97574.94;;;11.68;51.57
62789;BME280;66401;42.016;21.454;2023-04-03T00:35:26;97572.03;;;11.76;51.17
62789;BME280;66401;42.016;21.454;2023-04-03T00:37:53;97574.03;;;11.81;51.90
62789;BME280;66401;42.016;21.454;2023-04-03T00:40:19;97577.50;;;11.50;52.90
62789;BME280;66401;42.016;21.454;2023-04-03T00:42:46;97557.97;;;11.34;53.79
62789;BME280;66401;42.016;21.454;2023-04-03T00:47:40;97569.94;;;10.92;55.12
62789;BME280;66401;42.016;21.454;2023-04-03T00:50:07;97567.22;;;11.05;54.41
62789;BME280;66401;42.016;21.454;2023-04-03T00:52:33;97587.25;;;11.11;53.96
62789;BME280;66401;42.016;21.454;2023-04-03T00:55:02;97584.38;;;11.20;53.81
62789;BME280;66401;42.016;21.454;2023-04-03T00:57:30;97595.19;;;10.53;56.15
62789;BME280;66401;42.016;21.454;2023-04-03T01:00:03;97588.38;;;9.88;58.04
62789;BME280;66401;42.016;21.454;2023-04-03T01:02:30;97587.97;;;9.84;58.04
62789;BME280;66401;42.016;21.454;2023-04-03T01:04:56;97587.16;;;9.84;58.63
62789;BME280;66401;42.016;21.454;2023-04-03T01:07:24;97588.38;;;9.94;58.78
62789;BME280;66401;42.016;21.454;2023-04-03T01:09:56;97579.22;;;9.52;59.78
62789;BME280;66401;42.016;21.454;2023-04-03T01:12:29;97586.31;;;10.03;58.00
62789;BME280;66401;42.016;21.454;2023-04-03T01:14:57;97570.22;;;10.39;56.36
62789;BME280;66401;42.016;21.454;2023-04-03T01:25:26;97575.25;;;10.72;55.41
62789;BME280;66401;42.016;21.454;2023-04-03T01:27:52;97584.81;;;10.40;57.44
62789;BME280;66401;42.016;21.454;2023-04-03T01:30:19;97572.03;;;10.32;57.86
62789;BME280;66401;42.016;21.454;2023-04-03T01:32:46;97566.94;;;10.50;56.95
62789;BME280;66401;42.016;21.454;2023-04-03T01:35:12;97575.41;;;10.46;57.84
62789;BME280;66401;42.016;21.454;2023-04-03T01:37:37;97578.72;;;10.59;56.12
62789;BME280;66401;42.016;21.454;2023-04-03T01:40:04;97566.00;;;10.76;56.22
62789;BME280;66401;42.016;21.454;2023-04-03T01:42:30;97571.41;;;10.43;57.67
62789;BME280;66401;42.016;21.454;2023-04-03T01:44:56;97557.75;;;10.48;57.36
62789;BME280;66401;42.016;21.454;2023-04-03T01:47:22;97563.34;;;10.51;57.69
62789;BME280;66401;42.016;21.454;2023-04-03T01:49:47;97557.31;;;10.57;56.94
62789;BME280;66401;42.016;21.454;2023-04-03T01:52:13;97550.06;;;10.66;56.08
62789;BME280;66401;42.016;21.454;2023-04-03T01:54:39;97556.63;;;10.69;56.52
62789;BME280;66401;42.016;21.454;2023-04-03T01:57:04;97564.22;;;10.77;55.67
62789;BME280;66401;42.016;21.454;2023-04-03T01:59:30;97565.44;;;10.74;56.54
62789;BME280;66401;42.016;21.454;2023-04-03T02:01:55;97565.59;;;10.41;57.85
62789;BME280;66401;42.016;21.454;2023-04-03T02:04:21;97556.25;;;10.34;57.84
62789;BME280;66401;42.016;21.454;2023-04-03T02:06:46;97544.66;;;10.23;57.38
62789;BME280;66401;42.016;21.454;2023-04-03T02:09:12;97552.63;;;10.35;57.70
62789;BME280;66401;42.016;21.454;2023-04-03T02:11:38;97543.38;;;10.39;56.51
62789;BME280;66401;42.016;21.454;2023-04-03T02:14:03;97535.34;;;10.47;56.91
62789;BME280;66401;42.016;21.454;2023-04-03T02:16:29;97542.06;;;10.61;56.54
62789;BME280;66401;42.016;21.454;2023-04-03T02:18:56;97536.00;;;10.74;55.34
62789;BME280;66401;42.016;21.454;2023-04-03T02:21:21;97538.75;;;10.79;55.76
62789;BME280;66401;42.016;21.454;2023-04-03T02:23:47;97527.06;;;10.88;55.38
62789;BME280;66401;42.016;21.454;2023-04-03T02:26:13;97537.81;;;10.98;54.87
62789;BME280;66401;42.016;21.454;2023-04-03T02:28:39;97516.97;;;10.98;55.22
62789;BME280;66401;42.016;21.454;2023-04-03T02:31:07;97531.59;;;10.99;55.39
62789;BME280;66401;42.016;21.454;2023-04-03T02:33:33;97528.56;;;11.02;55.35
62789;BME280;66401;42.016;21.454;2023-04-03T02:35:59;97529.28;;;11.09;54.41
62789;BME280;66401;42.016;21.454;2023-04-03T02:38:25;97515.09;;;11.05;54.76
62789;BME280;66401;42.016;21.454;2023-04-03T02:40:51;97515.47;;;11.09;55.27
62789;BME280;66401;42.016;21.454;2023-04-03T02:43:17;97519.31;;;11.06;55.09
62789;BME280;66401;42.016;21.454;2023-04-03T02:45:43;97519.63;;;11.16;54.78
62789;BME280;66401;42.016;21.454;2023-04-03T02:48:09;97502.13;;;10.99;54.69
62789;BME280;66401;42.016;21.454;2023-04-03T02:50:34;97513.19;;;10.94;55.28
62789;BME280;66401;42.016;21.454;2023-04-03T02:53:00;97509.56;;;10.95;54.65
62789;BME280;66401;42.016;21.454;2023-04-03T02:55:26;97515.38;;;10.97;55.35
62789;BME280;66401;42.016;21.454;2023-04-03T02:57:51;97503.78;;;10.93;55.32
62789;BME280;66401;42.016;21.454;2023-04-03T03:00:17;97498.94;;;10.97;55.07
62789;BME280;66401;42.016;21.454;2023-04-03T03:02:43;97479.38;;;10.63;56.08
62789;BME280;66401;42.016;21.454;2023-04-03T03:05:08;97486.91;;;10.71;56.30
62789;BME280;66401;42.016;21.454;2023-04-03T03:07:34;97491.38;;;10.88;55.89
62789;BME280;66401;42.016;21.454;2023-04-03T03:09:59;97488.94;;;10.94;55.42
62789;BME280;66401;42.016;21.454;2023-04-03T03:12:25;97493.63;;;10.85;55.60
62789;BME280;66401;42.016;21.454;2023-04-03T03:14:51;97492.19;;;10.89;55.85
62789;BME280;66401;42.016;21.454;2023-04-03T03:17:17;97495.38;;;10.91;56.06
62789;BME280;66401;42.016;21.454;2023-04-03T03:19:43;97498.47;;;10.81;56.46
62789;BME280;66401;42.016;21.454;2023-04-03T03:22:09;97506.47;;;10.80;56.40
62789;BME280;66401;42.016;21.454;2023-04-03T03:24:34;97500.44;;;10.86;56.02
62789;BME280;66401;42.016;21.454;2023-04-03T03:27:00;97514.84;;;10.57;56.88
62789;BME280;66401;42.016;21.454;2023-04-03T03:29:25;97515.22;;;9.58;60.25
62789;BME280;66401;42.016;21.454;2023-04-03T03:31:51;97522.06;;;9.19;62.06
62789;BME280;66401;42.016;21.454;2023-04-03T03:34:17;97518.69;;;8.99;62.51
62789;BME280;66401;42.016;21.454;2023-04-03T03:36:42;97514.06;;;9.14;62.10
62789;BME280;66401;42.016;21.454;2023-04-03T03:39:08;97501.66;;;9.49;61.02
62789;BME280;66401;42.016;21.454;2023-04-03T03:41:33;97509.38;;;9.75;59.84
62789;BME280;66401;42.016;21.454;2023-04-03T03:43:59;97524.16;;;9.88;59.00
62789;BME280;66401;42.016;21.454;2023-04-03T03:46:25;97524.41;;;9.54;60.29
62789;BME280;66401;42.016;21.454;2023-04-03T03:48:50;97532.03;;;8.69;63.42
62789;BME280;66401;42.016;21.454;2023-04-03T03:51:16;97526.00;;;8.55;63.98
62789;BME280;66401;42.016;21.454;2023-04-03T03:53:42;97528.44;;;8.97;62.25
62789;BME280;66401;42.016;21.454;2023-04-03T03:56:07;97524.44;;;8.87;62.34
62789;BME280;66401;42.016;21.454;2023-04-03T03:58:33;97536.44;;;9.35;61.28
62789;BME280;66401;42.016;21.454;2023-04-03T04:01:05;97537.22;;;9.55;60.15
62789;BME280;66401;42.016;21.454;2023-04-03T04:03:31;97539.63;;;9.57;60.41
62789;BME280;66401;42.016;21.454;2023-04-03T04:05:57;97539.66;;;9.04;62.42
62789;BME280;66401;42.016;21.454;2023-04-03T04:08:23;97522.28;;;9.11;61.36
62789;BME280;66401;42.016;21.454;2023-04-03T04:10:48;97538.41;;;9.53;60.82
62789;BME280;66401;42.016;21.454;2023-04-03T04:13:14;97540.22;;;9.45;61.61
62789;BME280;66401;42.016;21.454;2023-04-03T04:15:39;97543.00;;;9.64;60.07
62789;BME280;66401;42.016;21.454;2023-04-03T04:18:06;97547.22;;;9.45;61.02
62789;BME280;66401;42.016;21.454;2023-04-03T04:20:31;97546.44;;;9.05;61.95
62789;BME280;66401;42.016;21.454;2023-04-03T04:22:57;97543.81;;;9.44;60.43
62789;BME280;66401;42.016;21.454;2023-04-03T04:25:22;97544.41;;;9.66;59.24
62789;BME280;66401;42.016;21.454;2023-04-03T04:27:48;97549.19;;;9.76;59.46
62789;BME280;66401;42.016;21.454;2023-04-03T04:30:13;97548.72;;;9.92;58.90
62789;BME280;66401;42.016;21.454;2023-04-03T04:32:39;97557.41;;;9.07;61.67
62789;BME280;66401;42.016;21.454;2023-04-03T04:35:04;97557.41;;;8.94;62.18
62789;BME280;66401;42.016;21.454;2023-04-03T04:37:30;97553.63;;;8.89;62.45
62789;BME280;66401;42.016;21.454;2023-04-03T04:39:56;97543.44;;;9.34;60.88
62789;BME280;66401;42.016;21.454;2023-04-03T04:42:23;97532.00;;;9.62;59.26
62789;BME280;66401;42.016;21.454;2023-04-03T04:44:48;97545.59;;;9.64;60.64
62789;BME280;66401;42.016;21.454;2023-04-03T04:47:14;97544.81;;;9.43;60.04
62789;BME280;66401;42.016;21.454;2023-04-03T04:49:39;97536.81;;;9.45;61.02
62789;BME280;66401;42.016;21.454;2023-04-03T04:52:05;97541.22;;;9.44;61.08
62789;BME280;66401;42.016;21.454;2023-04-03T04:54:31;97528.81;;;9.66;60.22
62789;BME280;66401;42.016;21.454;2023-04-03T04:56:57;97526.13;;;9.93;59.80
62789;BME280;66401;42.016;21.454;2023-04-03T04:59:22;97528.47;;;10.08;59.42
62789;BME280;66401;42.016;21.454;2023-04-03T05:01:48;97531.44;;;10.18;59.60
62789;BME280;66401;42.016;21.454;2023-04-03T05:04:13;97534.63;;;10.33;58.35
62789;BME280;66401;42.016;21.454;2023-04-03T05:06:40;97530.94;;;10.41;58.39
62789;BME280;66401;42.016;21.454;2023-04-03T05:09:06;97530.09;;;10.53;57.56
62789;BME280;66401;42.016;21.454;2023-04-03T05:11:32;97509.41;;;10.27;57.62
62789;BME280;66401;42.016;21.454;2023-04-03T05:13:57;97529.59;;;10.31;59.14
62789;BME280;66401;42.016;21.454;2023-04-03T05:16:23;97523.13;;;10.47;58.38
62789;BME280;66401;42.016;21.454;2023-04-03T05:18:48;97518.91;;;10.46;57.16
62789;BME280;66401;42.016;21.454;2023-04-03T05:21:13;97519.00;;;10.20;58.18
62789;BME280;66401;42.016;21.454;2023-04-03T05:23:39;97513.16;;;9.73;59.81
62789;BME280;66401;42.016;21.454;2023-04-03T05:26:05;97523.63;;;9.60;60.59
62789;BME280;66401;42.016;21.454;2023-04-03T05:28:31;97520.69;;;10.08;59.41
62789;BME280;66401;42.016;21.454;2023-04-03T05:30:58;97524.22;;;10.26;58.56
62789;BME280;66401;42.016;21.454;2023-04-03T05:33:24;97517.03;;;10.22;59.18
62789;BME280;66401;42.016;21.454;2023-04-03T05:35:51;97516.03;;;9.58;61.78
62789;BME280;66401;42.016;21.454;2023-04-03T05:38:23;97533.97;;;9.73;60.39
62789;BME280;66401;42.016;21.454;2023-04-03T05:40:48;97538.00;;;9.75;62.34
62789;BME280;66401;42.016;21.454;2023-04-03T05:43:14;97541.13;;;9.97;60.45
62789;BME280;66401;42.016;21.454;2023-04-03T05:45:40;97543.06;;;10.22;59.18
62789;BME280;66401;42.016;21.454;2023-04-03T05:48:05;97536.81;;;9.52;61.41
62789;BME280;66401;42.016;21.454;2023-04-03T05:50:31;97536.06;;;9.31;61.85
62789;BME280;66401;42.016;21.454;2023-04-03T05:52:57;97549.66;;;9.27;61.75
62789;BME280;66401;42.016;21.454;2023-04-03T05:55:24;97551.41;;;9.53;61.06
62789;BME280;66401;42.016;21.454;2023-04-03T05:57:49;97554.75;;;9.86;60.53
62789;BME280;66401;42.016;21.454;2023-04-03T06:00:15;97549.38;;;9.81;59.58
62789;BME280;66401;42.016;21.454;2023-04-03T06:02:41;97537.81;;;10.35;58.06
62789;BME280;66401;42.016;21.454;2023-04-03T06:05:10;97538.94;;;9.94;60.59
62789;BME280;66401;42.016;21.454;2023-04-03T06:07:37;97536.38;;;10.32;59.21
62789;BME280;66401;42.016;21.454;2023-04-03T06:10:03;97536.00;;;10.74;58.07
62789;BME280;66401;42.016;21.454;2023-04-03T06:12:29;97532.84;;;10.58;61.12
62789;BME280;66401;42.016;21.454;2023-04-03T06:14:56;97505.88;;;10.78;59.95
62789;BME280;66401;42.016;21.454;2023-04-03T06:17:21;97529.28;;;11.09;57.15
62789;BME280;66401;42.016;21.454;2023-04-03T06:19:47;97523.94;;;11.04;58.08
62789;BME280;66401;42.016;21.454;2023-04-03T06:22:13;97537.34;;;11.33;56.63
62789;BME280;66401;42.016;21.454;2023-04-03T06:24:39;97529.31;;;11.34;56.79
62789;BME280;66401;42.016;21.454;2023-04-03T06:27:05;97544.16;;;11.34;56.55
62789;BME280;66401;42.016;21.454;2023-04-03T06:29:30;97545.34;;;11.56;57.55
62789;BME280;66401;42.016;21.454;2023-04-03T06:31:56;97526.50;;;11.54;57.25
62789;BME280;66401;42.016;21.454;2023-04-03T06:34:22;97530.66;;;11.62;57.88
62789;BME280;66401;42.016;21.454;2023-04-03T06:36:47;97541.16;;;11.73;57.35
62789;BME280;66401;42.016;21.454;2023-04-03T06:39:19;97544.09;;;11.84;55.92
62789;BME280;66401;42.016;21.454;2023-04-03T06:41:48;97546.72;;;11.84;56.12
62789;BME280;66401;42.016;21.454;2023-04-03T06:44:14;97536.72;;;11.81;56.17
62789;BME280;66401;42.016;21.454;2023-04-03T06:46:42;97533.09;;;11.82;56.69
62789;BME280;66401;42.016;21.454;2023-04-03T06:49:08;97549.63;;;11.26;57.86
62789;BME280;66401;42.016;21.454;2023-04-03T06:51:35;97530.56;;;11.50;56.90
62789;BME280;66401;42.016;21.454;2023-04-03T06:54:02;97536.19;;;11.47;58.65
62789;BME280;66401;42.016;21.454;2023-04-03T06:56:28;97518.44;;;11.37;59.16
62789;BME280;66401;42.016;21.454;2023-04-03T06:58:54;97515.19;;;11.42;59.20
62789;BME280;66401;42.016;21.454;2023-04-03T07:01:24;97513.44;;;11.36;61.61
62789;BME280;66401;42.016;21.454;2023-04-03T07:03:51;97510.38;;;11.64;58.57
62789;BME280;66401;42.016;21.454;2023-04-03T07:06:18;97515.44;;;11.77;57.33
62789;BME280;66401;42.016;21.454;2023-04-03T07:08:44;97520.16;;;11.87;58.02
62789;BME280;66401;42.016;21.454;2023-04-03T07:11:11;97516.44;;;11.14;58.33
62789;BME280;66401;42.016;21.454;2023-04-03T07:13:37;97517.91;;;11.29;57.91
62789;BME280;66401;42.016;21.454;2023-04-03T07:16:03;97506.50;;;11.05;58.74
62789;BME280;66401;42.016;21.454;2023-04-03T07:18:31;97494.97;;;10.94;58.88
62789;BME280;66401;42.016;21.454;2023-04-03T07:20:56;97508.19;;;10.93;59.80
62789;BME280;66401;42.016;21.454;2023-04-03T07:23:22;97509.75;;;11.00;59.44
62789;BME280;66401;42.016;21.454;2023-04-03T07:25:49;97506.75;;;10.72;60.63
62789;BME280;66401;42.016;21.454;2023-04-03T07:28:17;97502.03;;;10.87;59.99
62789;BME280;66401;42.016;21.454;2023-04-03T07:30:47;97494.19;;;10.87;59.78
62789;BME280;66401;42.016;21.454;2023-04-03T07:33:14;97497.84;;;11.11;59.06
62789;BME280;66401;42.016;21.454;2023-04-03T07:35:40;97497.22;;;11.34;58.72
62789;BME280;66401;42.016;21.454;2023-04-03T07:38:06;97476.69;;;11.19;58.83
62789;BME280;66401;42.016;21.454;2023-04-03T07:40:33;97493.28;;;11.68;57.93
62789;BME280;66401;42.016;21.454;2023-04-03T07:42:58;97486.91;;;11.82;57.53
62789;BME280;66401;42.016;21.454;2023-04-03T07:45:25;97486.22;;;11.32;58.67
62789;BME280;66401;42.016;21.454;2023-04-03T07:47:50;97481.66;;;11.45;57.89
62789;BME280;66401;42.016;21.454;2023-04-03T07:50:17;97465.66;;;11.79;57.92
62789;BME280;66401;42.016;21.454;2023-04-03T07:52:42;97479.69;;;12.14;56.99
62789;BME280;66401;42.016;21.454;2023-04-03T07:55:08;97457.41;;;12.30;57.37
62789;BME280;66401;42.016;21.454;2023-04-03T07:57:34;97464.00;;;12.32;57.57
62789;BME280;66401;42.016;21.454;2023-04-03T08:00:00;97458.72;;;11.91;57.53
62789;BME280;66401;42.016;21.454;2023-04-03T08:02:26;97461.00;;;12.17;56.85
62789;BME280;66401;42.016;21.454;2023-04-03T08:04:52;97458.91;;;12.08;57.39
62789;BME280;66401;42.016;21.454;2023-04-03T08:07:17;97462.28;;;12.26;56.98
62789;BME280;66401;42.016;21.454;2023-04-03T08:09:43;97464.56;;;12.35;55.60
62789;BME280;66401;42.016;21.454;2023-04-03T08:12:09;97449.03;;;12.40;56.63
62789;BME280;66401;42.016;21.454;2023-04-03T08:14:36;97457.09;;;12.08;57.59
62789;BME280;66401;42.016;21.454;2023-04-03T08:17:02;97446.28;;;12.04;56.59
62789;BME280;66401;42.016;21.454;2023-04-03T08:19:30;97448.81;;;12.11;56.36
62789;BME280;66401;42.016;21.454;2023-04-03T08:21:56;97439.09;;;12.18;56.57
62789;BME280;66401;42.016;21.454;2023-04-03T08:24:24;97439.78;;;11.95;55.35
62789;BME280;66401;42.016;21.454;2023-04-03T08:26:50;97441.41;;;12.26;55.12
62789;BME280;66401;42.016;21.454;2023-04-03T08:29:16;97439.88;;;12.49;54.55
62789;BME280;66401;42.016;21.454;2023-04-03T08:31:41;97444.38;;;12.42;55.38
62789;BME280;66401;42.016;21.454;2023-04-03T08:34:08;97430.13;;;12.56;54.87
62789;BME280;66401;42.016;21.454;2023-04-03T08:36:33;97435.19;;;12.51;55.12
62789;BME280;66401;42.016;21.454;2023-04-03T08:38:59;97441.44;;;12.50;55.50
62789;BME280;66401;42.016;21.454;2023-04-03T08:44:39;97433.78;;;12.78;54.37
62789;BME280;66401;42.016;21.454;2023-04-03T08:47:40;97434.91;;;12.82;52.59
62789;BME280;66401;42.016;21.454;2023-04-03T08:50:13;97431.63;;;12.75;54.77
62789;BME280;66401;42.016;21.454;2023-04-03T08:52:51;97426.34;;;12.52;53.93
62789;BME280;66401;42.016;21.454;2023-04-03T08:58:30;97423.97;;;12.62;53.20
62789;BME280;66401;42.016;21.454;2023-04-03T09:01:21;97415.03;;;12.81;54.32
62789;BME280;66401;42.016;21.454;2023-04-03T09:03:48;97410.63;;;12.94;52.51
62789;BME280;66401;42.016;21.454;2023-04-03T09:06:18;97399.25;;;12.76;52.93
62789;BME280;66401;42.016;21.454;2023-04-03T09:08:51;97391.41;;;13.00;53.00
62789;BME280;66401;42.016;21.454;2023-04-03T09:11:32;97391.97;;;13.02;52.31
62789;BME280;66401;42.016;21.454;2023-04-03T09:16:59;97385.81;;;13.08;51.34
62789;BME280;66401;42.016;21.454;2023-04-03T09:22:00;97379.22;;;13.17;51.15
62789;BME280;66401;42.016;21.454;2023-04-03T09:24:28;97374.75;;;13.53;51.14
62789;BME280;66401;42.016;21.454;2023-04-03T09:27:07;97372.75;;;13.71;50.65
62789;BME280;66401;42.016;21.454;2023-04-03T09:29:39;97362.31;;;13.60;50.49
62789;BME280;66401;42.016;21.454;2023-04-03T09:32:28;97370.66;;;13.85;50.50
62789;BME280;66401;42.016;21.454;2023-04-03T09:34:58;97372.69;;;14.12;49.88
62789;BME280;66401;42.016;21.454;2023-04-03T09:37:46;97376.53;;;14.21;49.15
62789;BME280;66401;42.016;21.454;2023-04-03T09:40:31;97369.13;;;13.89;48.85
62789;BME280;66401;42.016;21.454;2023-04-03T09:43:18;97358.97;;;13.76;50.32
62789;BME280;66401;42.016;21.454;2023-04-03T09:45:47;97365.94;;;13.70;49.65
62789;BME280;66401;42.016;21.454;2023-04-03T09:53:44;97366.50;;;13.32;50.73
62789;BME280;66401;42.016;21.454;2023-04-03T09:58:47;97366.16;;;13.69;50.47
62789;BME280;66401;42.016;21.454;2023-04-03T10:04:18;97370.47;;;13.35;50.52
62789;BME280;66401;42.016;21.454;2023-04-03T10:06:54;97374.53;;;13.54;50.16
62789;BME280;66401;42.016;21.454;2023-04-03T10:09:23;97371.44;;;13.57;49.97
62789;BME280;66401;42.016;21.454;2023-04-03T10:12:08;97370.94;;;13.08;49.65
62789;BME280;66401;42.016;21.454;2023-04-03T10:19:57;97380.44;;;13.50;50.61
62789;BME280;66401;42.016;21.454;2023-04-03T10:25:32;97380.22;;;13.51;51.82
62789;BME280;66401;42.016;21.454;2023-04-03T10:28:09;97367.34;;;13.50;52.27
62789;BME280;66401;42.016;21.454;2023-04-03T10:30:50;97366.31;;;13.22;53.63
62789;BME280;66401;42.016;21.454;2023-04-03T10:47:00;97357.53;;;12.46;59.80
62789;BME280;66401;42.016;21.454;2023-04-03T10:57:40;97358.69;;;11.79;68.91
62789;BME280;66401;42.016;21.454;2023-04-03T11:00:13;97349.72;;;11.74;68.55
62789;BME280;66401;42.016;21.454;2023-04-03T11:03:08;97353.66;;;11.47;69.97
62789;BME280;66401;42.016;21.454;2023-04-03T11:05:41;97352.63;;;11.66;69.93
62789;BME280;66401;42.016;21.454;2023-04-03T11:10:49;97347.03;;;10.96;74.17
62789;BME280;66401;42.016;21.454;2023-04-03T11:13:22;97338.56;;;10.82;75.98
62789;BME280;66401;42.016;21.454;2023-04-03T11:15:53;97326.44;;;10.70;76.10
62789;BME280;66401;42.016;21.454;2023-04-03T11:18:27;97329.22;;;10.75;76.20
62789;BME280;66401;42.016;21.454;2023-04-03T11:21:07;97324.25;;;10.92;77.04
62789;BME280;66401;42.016;21.454;2023-04-03T11:23:39;97319.38;;;10.77;76.06
62789;BME280;66401;42.016;21.454;2023-04-03T11:26:11;97319.38;;;10.77;77.02
62789;BME280;66401;42.016;21.454;2023-04-03T11:28:38;97310.75;;;10.76;78.24
62789;BME280;66401;42.016;21.454;2023-04-03T11:31:13;97322.22;;;11.12;77.40
62789;BME280;66401;42.016;21.454;2023-04-03T11:36:26;97312.59;;;11.12;80.56
62789;BME280;66401;42.016;21.454;2023-04-03T11:38:55;97319.53;;;11.00;78.34
62789;BME280;66401;42.016;21.454;2023-04-03T11:41:30;97308.97;;;10.95;78.86
62789;BME280;66401;42.016;21.454;2023-04-03T11:44:02;97244.25;;;10.37;78.68
62789;BME280;66401;42.016;21.454;2023-04-03T11:46:53;97309.13;;;10.82;76.27
62789;BME280;66401;42.016;21.454;2023-04-03T12:05:48;97280.03;;;10.42;80.30
62789;BME280;66401;42.016;21.454;2023-04-03T12:14:02;97261.94;;;10.53;79.53
62789;BME280;66401;42.016;21.454;2023-04-03T12:19:29;97276.94;;;10.51;80.92
62789;BME280;66401;42.016;21.454;2023-04-03T12:24:36;97262.00;;;10.22;79.45
62789;BME280;66401;42.016;21.454;2023-04-03T12:35:28;97244.19;;;10.44;80.35
62789;BME280;66401;42.016;21.454;2023-04-03T12:41:23;97214.31;;;10.28;81.35
62789;BME280;66401;42.016;21.454;2023-04-03T12:46:38;97208.25;;;10.34;82.79
62789;BME280;66401;42.016;21.454;2023-04-03T12:49:20;97199.72;;;10.45;82.77
62789;BME280;66401;42.016;21.454;2023-04-03T12:51:48;97186.25;;;10.67;82.71
62789;BME280;66401;42.016;21.454;2023-04-03T12:54:18;97185.13;;;10.63;83.53
62789;BME280;66401;42.016;21.454;2023-04-03T12:56:45;97182.13;;;11.07;80.36
62789;BME280;66401;42.016;21.454;2023-04-03T13:01:41;97163.88;;;10.96;79.38
62789;BME280;66401;42.016;21.454;2023-04-03T13:04:10;97165.94;;;10.57;82.32
62789;BME280;66401;42.016;21.454;2023-04-03T13:06:42;97155.22;;;11.13;80.39
62789;BME280;66401;42.016;21.454;2023-04-03T13:09:25;97154.34;;;11.20;82.03
62789;BME280;66401;42.016;21.454;2023-04-03T13:12:03;97167.06;;;11.09;80.90
62789;BME280;66401;42.016;21.454;2023-04-03T13:14:34;97164.84;;;10.83;80.50
62789;BME280;66401;42.016;21.454;2023-04-03T13:17:06;97166.28;;;10.60;82.71
62789;BME280;66401;42.016;21.454;2023-04-03T13:19:35;97157.50;;;10.62;83.33
62789;BME280;66401;42.016;21.454;2023-04-03T13:22:07;97151.06;;;10.94;81.84
62789;BME280;66401;42.016;21.454;2023-04-03T13:24:36;97157.53;;;10.73;82.97
62789;BME280;66401;42.016;21.454;2023-04-03T13:27:03;97150.56;;;10.37;85.34
62789;BME280;66401;42.016;21.454;2023-04-03T13:29:34;97124.56;;;10.12;86.98
62789;BME280;66401;42.016;21.454;2023-04-03T13:32:02;97130.47;;;10.01;87.14
62789;BME280;66401;42.016;21.454;2023-04-03T13:34:36;97135.91;;;10.18;87.91
62789;BME280;66401;42.016;21.454;2023-04-03T13:37:03;97127.16;;;10.12;88.33
62789;BME280;66401;42.016;21.454;2023-04-03T13:39:32;97121.25;;;10.05;88.15
62789;BME280;66401;42.016;21.454;2023-04-03T13:42:01;97114.94;;;10.13;87.78
62789;BME280;66401;42.016;21.454;2023-04-03T13:44:36;97108.63;;;10.27;89.05
62789;BME280;66401;42.016;21.454;2023-04-03T13:49:45;97100.44;;;10.05;88.11
62789;BME280;66401;42.016;21.454;2023-04-03T13:54:46;97087.94;;;9.95;88.29
62789;BME280;66401;42.016;21.454;2023-04-03T13:57:14;97073.34;;;10.31;86.58
62789;BME280;66401;42.016;21.454;2023-04-03T13:59:42;97063.38;;;10.28;87.65
62789;BME280;66401;42.016;21.454;2023-04-03T14:07:02;97045.44;;;9.83;88.63
62789;BME280;66401;42.016;21.454;2023-04-03T14:09:28;97074.19;;;9.88;89.57
62789;BME280;66401;42.016;21.454;2023-04-03T14:11:57;97069.00;;;9.88;89.47
62789;BME280;66401;42.016;21.454;2023-04-03T14:14:26;97069.44;;;10.22;87.95
62789;BME280;66401;42.016;21.454;2023-04-03T14:16:57;97059.88;;;10.16;88.98
62789;BME280;66401;42.016;21.454;2023-04-03T14:19:30;97043.00;;;10.25;88.29
62789;BME280;66401;42.016;21.454;2023-04-03T14:21:58;97048.75;;;10.45;88.00
62789;BME280;66401;42.016;21.454;2023-04-03T14:24:24;97043.84;;;10.67;85.41
62789;BME280;66401;42.016;21.454;2023-04-03T14:26:52;97054.91;;;10.93;84.37
62789;BME280;66401;42.016;21.454;2023-04-03T14:29:18;97054.09;;;10.92;83.45
62789;BME280;66401;42.016;21.454;2023-04-03T14:31:45;97048.94;;;10.62;83.94
62789;BME280;66401;42.016;21.454;2023-04-03T14:34:11;97049.78;;;10.86;83.83
62789;BME280;66401;42.016;21.454;2023-04-03T14:36:38;97042.81;;;10.68;85.85
62789;BME280;66401;42.016;21.454;2023-04-03T14:39:05;97046.81;;;10.22;87.00
62789;BME280;66401;42.016;21.454;2023-04-03T14:41:32;97046.31;;;10.14;88.67
62789;BME280;66401;42.016;21.454;2023-04-03T14:43:57;97039.88;;;10.35;86.32
62789;BME280;66401;42.016;21.454;2023-04-03T14:46:28;97042.47;;;10.35;87.47
62789;BME280;66401;42.016;21.454;2023-04-03T14:48:54;97008.66;;;9.80;89.72
62789;BME280;66401;42.016;21.454;2023-04-03T14:51:20;97058.88;;;9.98;90.80
62789;BME280;66401;42.016;21.454;2023-04-03T14:53:45;97052.53;;;9.94;89.28
62789;BME280;66401;42.016;21.454;2023-04-03T14:56:26;97043.50;;;10.34;87.56
62789;BME280;66401;42.016;21.454;2023-04-03T14:58:58;97048.28;;;10.48;84.98
62789;BME280;66401;42.016;21.454;2023-04-03T15:01:25;97037.91;;;10.60;85.89